sensor_id;sensor_type;location;lat;lon;timestamp;temperature;humidity
23371;DHT22;11858;51.056;3.712;2023-11-21T00:00:47;9.10;99.90
23371;DHT22;11858;51.056;3.712;2023-11-21T00:03:12;9.20;99.90
23371;DHT22;11858;51.056;3.712;2023-11-21T00:05:40;9.20;99.90
23371;DHT22;11858;51.056;3.712;2023-11-21T00:08:09;9.20;99.90
23371;DHT22;11858;51.056;3.712;2023-11-21T00:10:36;9.30;99.90
23371;DHT22;11858;51.056;3.712;2023-11-21T00:13:04;9.30;99.90
23371;DHT22;11858;51.056;3.712;2023-11-21T00:15:30;9.30;99.90
23371;DHT22;11858;51.056;3.712;2023-11-21T00:17:55;9.30;99.90
23371;DHT22;11858;51.056;3.712;2023-11-21T00:20:21;9.30;99.90
23371;DHT22;11858;51.056;3.712;2023-11-21T00:22:47;9.30;99.90
23371;DHT22;11858;51.056;3.712;2023-11-21T00:25:13;9.30;99.90
23371;DHT22;11858;51.056;3.712;2023-11-21T00:27:41;9.30;99.90
23371;DHT22;11858;51.056;3.712;2023-11-21T00:30:07;9.40;99.90
23371;DHT22;11858;51.056;3.712;2023-11-21T00:32:36;9.40;99.90
23371;DHT22;11858;51.056;3.712;2023-11-21T00:35:02;9.40;99.90
23371;DHT22;11858;51.056;3.712;2023-11-21T00:37:28;9.40;99.90
23371;DHT22;11858;51.056;3.712;2023-11-21T00:39:53;9.50;99.90
23371;DHT22;11858;51.056;3.712;2023-11-21T00:42:19;9.50;99.90
23371;DHT22;11858;51.056;3.712;2023-11-21T00:44:45;9.50;99.90
23371;DHT22;11858;51.056;3.712;2023-11-21T00:47:11;9.60;99.90
23371;DHT22;11858;51.056;3.712;2023-11-21T00:49:36;9.60;99.90
23371;DHT22;11858;51.056;3.712;2023-11-21T00:52:02;9.60;99.90
23371;DHT22;11858;51.056;3.712;2023-11-21T00:54:28;9.60;99.90
23371;DHT22;11858;51.056;3.712;2023-11-21T00:56:54;9.60;99.90
23371;DHT22;11858;51.056;3.712;2023-11-21T00:59:19;9.60;99.90
23371;DHT22;11858;51.056;3.712;2023-11-21T01:01:45;9.70;99.90
23371;DHT22;11858;51.056;3.712;2023-11-21T01:04:10;9.60;99.90
23371;DHT22;11858;51.056;3.712;2023-11-21T01:06:36;9.60;99.90
23371;DHT22;11858;51.056;3.712;2023-11-21T01:09:02;9.60;99.90
23371;DHT22;11858;51.056;3.712;2023-11-21T01:11:36;9.60;99.90
23371;DHT22;11858;51.056;3.712;2023-11-21T01:14:03;9.60;99.90
23371;DHT22;11858;51.056;3.712;2023-11-21T01:16:29;9.60;99.90
23371;DHT22;11858;51.056;3.712;2023-11-21T01:18:58;9.60;99.90
23371;DHT22;11858;51.056;3.712;2023-11-21T01:21:24;9.60;99.90
23371;DHT22;11858;51.056;3.712;2023-11-21T01:23:50;9.50;99.90
23371;DHT22;11858;51.056;3.712;2023-11-21T01:26:16;9.50;99.90
23371;DHT22;11858;51.056;3.712;2023-11-21T01:28:41;9.40;99.90
23371;DHT22;11858;51.056;3.712;2023-11-21T01:31:07;9.50;99.90
23371;DHT22;11858;51.056;3.712;2023-11-21T01:33:33;9.50;99.90
23371;DHT22;11858;51.056;3.712;2023-11-21T01:35:58;9.50;99.90
23371;DHT22;11858;51.056;3.712;2023-11-21T01:38:25;9.60;99.90
23371;DHT22;11858;51.056;3.712;2023-11-21T01:40:51;9.70;99.90
23371;DHT22;11858;51.056;3.712;2023-11-21T01:43:17;9.70;99.90
23371;DHT22;11858;51.056;3.712;2023-11-21T01:45:42;9.70;99.90
23371;DHT22;11858;51.056;3.712;2023-11-21T01:48:10;9.70;99.90
23371;DHT22;11858;51.056;3.712;2023-11-21T01:50:38;9.70;99.90
23371;DHT22;11858;51.056;3.712;2023-11-21T01:53:03;9.50;99.90
23371;DHT22;11858;51.056;3.712;2023-11-21T01:55:29;9.60;99.90
23371;DHT22;11858;51.056;3.712;2023-11-21T01:57:56;9.50;99.90
23371;DHT22;11858;51.056;3.712;2023-11-21T02:00:25;9.60;99.90
23371;DHT22;11858;51.056;3.712;2023-11-21T02:02:53;9.50;99.90
23371;DHT22;11858;51.056;3.712;2023-11-21T02:05:19;9.50;99.90
23371;DHT22;11858;51.056;3.712;2023-11-21T02:07:46;9.60;99.90
23371;DHT22;11858;51.056;3.712;2023-11-21T02:10:15;9.50;99.90
23371;DHT22;11858;51.056;3.712;2023-11-21T02:12:42;9.60;99.90
23371;DHT22;11858;51.056;3.712;2023-11-21T02:15:10;9.70;99.90
23371;DHT22;11858;51.056;3.712;2023-11-21T02:17:43;9.70;99.90
23371;DHT22;11858;51.056;3.712;2023-11-21T02:20:18;9.60;99.90
23371;DHT22;11858;51.056;3.712;2023-11-21T02:22:53;9.70;99.90
23371;DHT22;11858;51.056;3.712;2023-11-21T02:25:29;9.60;99.90
23371;DHT22;11858;51.056;3.712;2023-11-21T02:27:56;9.50;99.90
23371;DHT22;11858;51.056;3.712;2023-11-21T02:30:22;9.50;99.90
23371;DHT22;11858;51.056;3.712;2023-11-21T02:32:48;9.60;99.90
23371;DHT22;11858;51.056;3.712;2023-11-21T02:35:14;9.50;99.90
23371;DHT22;11858;51.056;3.712;2023-11-21T02:37:41;9.50;99.90
23371;DHT22;11858;51.056;3.712;2023-11-21T02:40:09;9.50;99.90
23371;DHT22;11858;51.056;3.712;2023-11-21T02:42:35;9.40;99.90
23371;DHT22;11858;51.056;3.712;2023-11-21T02:45:01;9.50;99.90
23371;DHT22;11858;51.056;3.712;2023-11-21T02:47:27;9.50;99.90
23371;DHT22;11858;51.056;3.712;2023-11-21T02:49:52;9.60;99.90
23371;DHT22;11858;51.056;3.712;2023-11-21T02:52:18;9.50;99.90
23371;DHT22;11858;51.056;3.712;2023-11-21T02:54:44;9.50;99.90
23371;DHT22;11858;51.056;3.712;2023-11-21T02:57:10;9.50;99.90
23371;DHT22;11858;51.056;3.712;2023-11-21T02:59:36;9.60;99.90
23371;DHT22;11858;51.056;3.712;2023-11-21T03:02:01;9.60;99.90
23371;DHT22;11858;51.056;3.712;2023-11-21T03:04:27;9.60;99.90
23371;DHT22;11858;51.056;3.712;2023-11-21T03:06:52;9.60;99.90
23371;DHT22;11858;51.056;3.712;2023-11-21T03:09:18;9.70;99.90
23371;DHT22;11858;51.056;3.712;2023-11-21T03:11:44;9.60;99.90
23371;DHT22;11858;51.056;3.712;2023-11-21T03:14:09;9.60;99.90
23371;DHT22;11858;51.056;3.712;2023-11-21T03:16:36;9.60;99.90
23371;DHT22;11858;51.056;3.712;2023-11-21T03:19:03;9.60;99.90
23371;DHT22;11858;51.056;3.712;2023-11-21T03:21:30;9.70;99.90
23371;DHT22;11858;51.056;3.712;2023-11-21T03:23:56;9.70;99.90
23371;DHT22;11858;51.056;3.712;2023-11-21T03:26:21;9.70;99.90
23371;DHT22;11858;51.056;3.712;2023-11-21T03:28:47;9.60;99.90
23371;DHT22;11858;51.056;3.712;2023-11-21T03:31:13;9.60;99.90
23371;DHT22;11858;51.056;3.712;2023-11-21T03:33:39;9.70;99.90
23371;DHT22;11858;51.056;3.712;2023-11-21T03:36:04;9.60;99.90
23371;DHT22;11858;51.056;3.712;2023-11-21T03:38:30;9.70;99.90
23371;DHT22;11858;51.056;3.712;2023-11-21T03:40:56;9.70;99.90
23371;DHT22;11858;51.056;3.712;2023-11-21T03:43:21;9.80;99.90
23371;DHT22;11858;51.056;3.712;2023-11-21T03:45:47;9.80;99.90
23371;DHT22;11858;51.056;3.712;2023-11-21T03:48:14;9.70;99.90
23371;DHT22;11858;51.056;3.712;2023-11-21T03:50:39;9.80;99.90
23371;DHT22;11858;51.056;3.712;2023-11-21T03:53:05;9.80;99.90
23371;DHT22;11858;51.056;3.712;2023-11-21T03:55:31;9.80;99.90
23371;DHT22;11858;51.056;3.712;2023-11-21T03:57:58;9.90;99.90
23371;DHT22;11858;51.056;3.712;2023-11-21T04:00:24;9.90;99.90
23371;DHT22;11858;51.056;3.712;2023-11-21T04:02:50;10.00;99.90
23371;DHT22;11858;51.056;3.712;2023-11-21T04:05:17;10.00;99.90
23371;DHT22;11858;51.056;3.712;2023-11-21T04:07:42;10.00;99.90
23371;DHT22;11858;51.056;3.712;2023-11-21T04:10:09;10.00;99.90
23371;DHT22;11858;51.056;3.712;2023-11-21T04:12:35;9.90;99.90
23371;DHT22;11858;51.056;3.712;2023-11-21T04:15:02;10.00;99.90
23371;DHT22;11858;51.056;3.712;2023-11-21T04:17:27;9.90;99.90
23371;DHT22;11858;51.056;3.712;2023-11-21T04:19:53;10.00;99.90
23371;DHT22;11858;51.056;3.712;2023-11-21T04:22:18;9.90;99.90
23371;DHT22;11858;51.056;3.712;2023-11-21T04:24:44;9.80;99.90
23371;DHT22;11858;51.056;3.712;2023-11-21T04:27:10;9.80;99.90
23371;DHT22;11858;51.056;3.712;2023-11-21T04:29:35;9.90;99.90
23371;DHT22;11858;51.056;3.712;2023-11-21T04:32:01;9.80;99.90
23371;DHT22;11858;51.056;3.712;2023-11-21T04:34:28;9.80;99.90
23371;DHT22;11858;51.056;3.712;2023-11-21T04:36:56;9.90;99.90
23371;DHT22;11858;51.056;3.712;2023-11-21T04:39:22;9.80;99.90
23371;DHT22;11858;51.056;3.712;2023-11-21T04:41:49;9.80;99.90
23371;DHT22;11858;51.056;3.712;2023-11-21T04:44:14;9.90;99.90
23371;DHT22;11858;51.056;3.712;2023-11-21T04:46:41;9.90;99.90
23371;DHT22;11858;51.056;3.712;2023-11-21T04:49:07;10.00;99.90
23371;DHT22;11858;51.056;3.712;2023-11-21T04:51:33;10.00;99.90
23371;DHT22;11858;51.056;3.712;2023-11-21T04:53:59;9.90;99.90
23371;DHT22;11858;51.056;3.712;2023-11-21T04:56:24;10.10;99.90
23371;DHT22;11858;51.056;3.712;2023-11-21T04:58:50;10.10;99.90
23371;DHT22;11858;51.056;3.712;2023-11-21T05:01:16;10.10;99.90
23371;DHT22;11858;51.056;3.712;2023-11-21T05:03:41;10.10;99.90
23371;DHT22;11858;51.056;3.712;2023-11-21T05:06:09;10.00;99.90
23371;DHT22;11858;51.056;3.712;2023-11-21T05:08:35;10.00;99.90
23371;DHT22;11858;51.056;3.712;2023-11-21T05:11:02;10.00;99.90
23371;DHT22;11858;51.056;3.712;2023-11-21T05:13:28;10.10;99.90
23371;DHT22;11858;51.056;3.712;2023-11-21T05:15:55;10.10;99.90
23371;DHT22;11858;51.056;3.712;2023-11-21T05:18:22;10.10;99.90
23371;DHT22;11858;51.056;3.712;2023-11-21T05:20:48;10.10;99.90
23371;DHT22;11858;51.056;3.712;2023-11-21T05:23:14;10.00;99.90
23371;DHT22;11858;51.056;3.712;2023-11-21T05:25:39;10.10;99.90
23371;DHT22;11858;51.056;3.712;2023-11-21T05:28:06;10.10;99.90
23371;DHT22;11858;51.056;3.712;2023-11-21T05:30:32;10.10;99.90
23371;DHT22;11858;51.056;3.712;2023-11-21T05:32:58;10.10;99.90
23371;DHT22;11858;51.056;3.712;2023-11-21T05:35:23;10.10;99.90
23371;DHT22;11858;51.056;3.712;2023-11-21T05:37:49;10.10;99.90
23371;DHT22;11858;51.056;3.712;2023-11-21T05:40:15;10.10;99.90
23371;DHT22;11858;51.056;3.712;2023-11-21T05:42:40;10.10;99.90
23371;DHT22;11858;51.056;3.712;2023-11-21T05:45:07;10.10;99.90
23371;DHT22;11858;51.056;3.712;2023-11-21T05:47:46;10.10;99.90
23371;DHT22;11858;51.056;3.712;2023-11-21T05:50:14;10.10;99.90
23371;DHT22;11858;51.056;3.712;2023-11-21T05:52:47;10.10;99.90
23371;DHT22;11858;51.056;3.712;2023-11-21T05:55:13;10.10;99.90
23371;DHT22;11858;51.056;3.712;2023-11-21T05:57:40;10.10;99.90
23371;DHT22;11858;51.056;3.712;2023-11-21T06:00:09;10.10;99.90
23371;DHT22;11858;51.056;3.712;2023-11-21T06:02:46;10.00;99.90
23371;DHT22;11858;51.056;3.712;2023-11-21T06:05:12;10.10;99.90
23371;DHT22;11858;51.056;3.712;2023-11-21T06:07:38;10.00;99.90
23371;DHT22;11858;51.056;3.712;2023-11-21T06:10:06;10.10;99.90
23371;DHT22;11858;51.056;3.712;2023-11-21T06:12:35;10.00;99.90
23371;DHT22;11858;51.056;3.712;2023-11-21T06:15:05;10.00;99.90
23371;DHT22;11858;51.056;3.712;2023-11-21T06:17:32;10.00;99.90
23371;DHT22;11858;51.056;3.712;2023-11-21T06:19:59;10.00;99.90
23371;DHT22;11858;51.056;3.712;2023-11-21T06:22:26;10.00;99.90
23371;DHT22;11858;51.056;3.712;2023-11-21T06:24:51;9.90;99.90
23371;DHT22;11858;51.056;3.712;2023-11-21T06:27:17;9.90;99.90
23371;DHT22;11858;51.056;3.712;2023-11-21T06:29:43;9.90;99.90
23371;DHT22;11858;51.056;3.712;2023-11-21T06:32:09;9.90;99.90
23371;DHT22;11858;51.056;3.712;2023-11-21T06:34:34;10.00;99.90
23371;DHT22;11858;51.056;3.712;2023-11-21T06:37:00;9.90;99.90
23371;DHT22;11858;51.056;3.712;2023-11-21T06:39:26;9.90;99.90
23371;DHT22;11858;51.056;3.712;2023-11-21T06:41:53;10.00;99.90
23371;DHT22;11858;51.056;3.712;2023-11-21T06:44:18;10.00;99.90
23371;DHT22;11858;51.056;3.712;2023-11-21T06:46:45;9.90;99.90
23371;DHT22;11858;51.056;3.712;2023-11-21T06:49:10;10.00;99.90
23371;DHT22;11858;51.056;3.712;2023-11-21T06:51:37;9.90;99.90
23371;DHT22;11858;51.056;3.712;2023-11-21T06:54:02;10.00;99.90
23371;DHT22;11858;51.056;3.712;2023-11-21T06:56:28;10.00;99.90
23371;DHT22;11858;51.056;3.712;2023-11-21T06:58:54;10.00;99.90
23371;DHT22;11858;51.056;3.712;2023-11-21T07:01:19;10.00;99.90
23371;DHT22;11858;51.056;3.712;2023-11-21T07:03:45;10.20;99.90
23371;DHT22;11858;51.056;3.712;2023-11-21T07:06:11;10.20;99.90
23371;DHT22;11858;51.056;3.712;2023-11-21T07:08:42;10.20;99.90
23371;DHT22;11858;51.056;3.712;2023-11-21T07:11:08;10.10;99.90
23371;DHT22;11858;51.056;3.712;2023-11-21T07:13:33;10.10;99.90
23371;DHT22;11858;51.056;3.712;2023-11-21T07:15:59;10.10;99.90
23371;DHT22;11858;51.056;3.712;2023-11-21T07:18:25;10.10;99.90
23371;DHT22;11858;51.056;3.712;2023-11-21T07:20:51;10.10;99.90
23371;DHT22;11858;51.056;3.712;2023-11-21T07:23:17;10.10;99.90
23371;DHT22;11858;51.056;3.712;2023-11-21T07:25:43;10.10;99.90
23371;DHT22;11858;51.056;3.712;2023-11-21T07:28:09;10.10;99.90
23371;DHT22;11858;51.056;3.712;2023-11-21T07:30:35;10.10;99.90
23371;DHT22;11858;51.056;3.712;2023-11-21T07:33:00;10.10;99.90
23371;DHT22;11858;51.056;3.712;2023-11-21T07:35:26;10.20;99.90
23371;DHT22;11858;51.056;3.712;2023-11-21T07:37:52;10.30;99.90
23371;DHT22;11858;51.056;3.712;2023-11-21T07:40:17;10.30;99.90
23371;DHT22;11858;51.056;3.712;2023-11-21T07:42:43;10.30;99.90
23371;DHT22;11858;51.056;3.712;2023-11-21T07:45:09;10.30;99.90
23371;DHT22;11858;51.056;3.712;2023-11-21T07:47:35;10.30;99.90
23371;DHT22;11858;51.056;3.712;2023-11-21T07:50:03;10.40;99.90
23371;DHT22;11858;51.056;3.712;2023-11-21T07:52:28;10.30;99.90
23371;DHT22;11858;51.056;3.712;2023-11-21T07:54:54;10.40;99.90
23371;DHT22;11858;51.056;3.712;2023-11-21T07:57:20;10.40;99.90
23371;DHT22;11858;51.056;3.712;2023-11-21T07:59:45;10.40;99.90
23371;DHT22;11858;51.056;3.712;2023-11-21T08:02:11;10.50;99.90
23371;DHT22;11858;51.056;3.712;2023-11-21T08:04:37;10.60;99.90
23371;DHT22;11858;51.056;3.712;2023-11-21T08:07:03;10.70;99.90
23371;DHT22;11858;51.056;3.712;2023-11-21T08:09:29;10.60;99.90
23371;DHT22;11858;51.056;3.712;2023-11-21T08:11:55;10.70;99.90
23371;DHT22;11858;51.056;3.712;2023-11-21T08:14:22;10.70;99.90
23371;DHT22;11858;51.056;3.712;2023-11-21T08:16:47;10.80;99.90
23371;DHT22;11858;51.056;3.712;2023-11-21T08:19:13;10.80;99.90
23371;DHT22;11858;51.056;3.712;2023-11-21T08:21:39;10.80;99.90
23371;DHT22;11858;51.056;3.712;2023-11-21T08:24:08;10.80;99.90
23371;DHT22;11858;51.056;3.712;2023-11-21T08:26:36;10.80;99.90
23371;DHT22;11858;51.056;3.712;2023-11-21T08:29:02;10.80;99.90
23371;DHT22;11858;51.056;3.712;2023-11-21T08:31:28;10.80;99.90
23371;DHT22;11858;51.056;3.712;2023-11-21T08:33:54;10.90;99.90
23371;DHT22;11858;51.056;3.712;2023-11-21T08:36:22;10.90;99.90
23371;DHT22;11858;51.056;3.712;2023-11-21T08:38:50;11.00;99.90
23371;DHT22;11858;51.056;3.712;2023-11-21T08:41:17;11.10;99.90
23371;DHT22;11858;51.056;3.712;2023-11-21T08:43:44;11.00;99.90
23371;DHT22;11858;51.056;3.712;2023-11-21T08:46:10;10.90;99.90
23371;DHT22;11858;51.056;3.712;2023-11-21T08:48:36;10.90;99.90
23371;DHT22;11858;51.056;3.712;2023-11-21T08:51:03;11.00;99.90
23371;DHT22;11858;51.056;3.712;2023-11-21T08:53:29;11.00;99.90
23371;DHT22;11858;51.056;3.712;2023-11-21T08:55:56;10.90;99.90
23371;DHT22;11858;51.056;3.712;2023-11-21T08:58:22;10.90;99.90
23371;DHT22;11858;51.056;3.712;2023-11-21T09:00:48;11.00;99.90
23371;DHT22;11858;51.056;3.712;2023-11-21T09:03:13;11.10;99.90
23371;DHT22;11858;51.056;3.712;2023-11-21T09:05:39;11.10;99.90
23371;DHT22;11858;51.056;3.712;2023-11-21T09:08:05;11.10;99.90
23371;DHT22;11858;51.056;3.712;2023-11-21T09:10:33;11.20;99.90
23371;DHT22;11858;51.056;3.712;2023-11-21T09:13:01;11.30;99.90
23371;DHT22;11858;51.056;3.712;2023-11-21T09:15:27;11.30;99.90
23371;DHT22;11858;51.056;3.712;2023-11-21T09:17:53;11.40;99.90
23371;DHT22;11858;51.056;3.712;2023-11-21T09:20:19;11.50;99.90
23371;DHT22;11858;51.056;3.712;2023-11-21T09:22:48;12.70;99.90
23371;DHT22;11858;51.056;3.712;2023-11-21T09:25:14;14.70;99.90
23371;DHT22;11858;51.056;3.712;2023-11-21T09:27:40;16.10;99.90
23371;DHT22;11858;51.056;3.712;2023-11-21T09:30:07;15.60;99.90
23371;DHT22;11858;51.056;3.712;2023-11-21T09:32:37;15.10;99.90
23371;DHT22;11858;51.056;3.712;2023-11-21T09:35:06;14.50;99.90
23371;DHT22;11858;51.056;3.712;2023-11-21T09:37:33;14.20;99.90
23371;DHT22;11858;51.056;3.712;2023-11-21T09:39:59;13.80;99.90
23371;DHT22;11858;51.056;3.712;2023-11-21T09:42:39;13.70;99.90
23371;DHT22;11858;51.056;3.712;2023-11-21T09:47:40;13.50;99.90
23371;DHT22;11858;51.056;3.712;2023-11-21T09:50:06;13.50;99.90
23371;DHT22;11858;51.056;3.712;2023-11-21T09:55:34;13.40;99.90
23371;DHT22;11858;51.056;3.712;2023-11-21T09:58:04;13.40;99.90
23371;DHT22;11858;51.056;3.712;2023-11-21T10:00:33;13.30;99.90
23371;DHT22;11858;51.056;3.712;2023-11-21T10:02:59;13.40;99.90
23371;DHT22;11858;51.056;3.712;2023-11-21T10:05:25;13.50;99.90
23371;DHT22;11858;51.056;3.712;2023-11-21T10:07:52;13.50;99.90
23371;DHT22;11858;51.056;3.712;2023-11-21T10:10:19;13.70;99.90
23371;DHT22;11858;51.056;3.712;2023-11-21T10:12:50;13.80;99.90
23371;DHT22;11858;51.056;3.712;2023-11-21T10:15:21;13.80;99.90
23371;DHT22;11858;51.056;3.712;2023-11-21T10:17:49;13.80;99.90
23371;DHT22;11858;51.056;3.712;2023-11-21T10:20:15;13.90;99.90
23371;DHT22;11858;51.056;3.712;2023-11-21T10:22:42;13.90;99.90
23371;DHT22;11858;51.056;3.712;2023-11-21T10:25:11;13.80;99.90
23371;DHT22;11858;51.056;3.712;2023-11-21T10:27:40;13.80;99.90
23371;DHT22;11858;51.056;3.712;2023-11-21T10:30:07;14.10;99.90
23371;DHT22;11858;51.056;3.712;2023-11-21T10:32:33;14.00;99.90
23371;DHT22;11858;51.056;3.712;2023-11-21T10:35:00;14.60;99.90
23371;DHT22;11858;51.056;3.712;2023-11-21T10:37:38;15.60;99.90
23371;DHT22;11858;51.056;3.712;2023-11-21T10:40:09;16.10;99.90
23371;DHT22;11858;51.056;3.712;2023-11-21T10:42:39;16.00;99.90
23371;DHT22;11858;51.056;3.712;2023-11-21T10:45:06;16.10;99.90
23371;DHT22;11858;51.056;3.712;2023-11-21T10:47:42;16.20;99.90
23371;DHT22;11858;51.056;3.712;2023-11-21T10:50:08;16.30;99.90
23371;DHT22;11858;51.056;3.712;2023-11-21T10:52:40;16.20;99.90
23371;DHT22;11858;51.056;3.712;2023-11-21T10:55:26;16.10;99.90
23371;DHT22;11858;51.056;3.712;2023-11-21T10:57:53;15.50;99.90
23371;DHT22;11858;51.056;3.712;2023-11-21T11:00:19;15.20;99.90
23371;DHT22;11858;51.056;3.712;2023-11-21T11:02:48;14.80;99.90
23371;DHT22;11858;51.056;3.712;2023-11-21T11:05:16;14.50;99.90
23371;DHT22;11858;51.056;3.712;2023-11-21T11:07:44;14.30;99.90
23371;DHT22;11858;51.056;3.712;2023-11-21T11:10:14;14.00;99.90
23371;DHT22;11858;51.056;3.712;2023-11-21T11:12:43;13.80;99.90
23371;DHT22;11858;51.056;3.712;2023-11-21T11:15:11;13.70;99.90
23371;DHT22;11858;51.056;3.712;2023-11-21T11:17:38;13.60;99.90
23371;DHT22;11858;51.056;3.712;2023-11-21T11:20:05;13.60;99.90
23371;DHT22;11858;51.056;3.712;2023-11-21T11:28:51;13.70;99.90
23371;DHT22;11858;51.056;3.712;2023-11-21T11:34:28;13.30;99.90
23371;DHT22;11858;51.056;3.712;2023-11-21T11:37:03;13.20;99.90
23371;DHT22;11858;51.056;3.712;2023-11-21T11:39:33;13.10;99.90
23371;DHT22;11858;51.056;3.712;2023-11-21T11:42:03;13.10;99.90
23371;DHT22;11858;51.056;3.712;2023-11-21T11:50:09;13.30;99.90
23371;DHT22;11858;51.056;3.712;2023-11-21T11:52:49;13.40;99.90
23371;DHT22;11858;51.056;3.712;2023-11-21T11:55:18;13.60;99.90
23371;DHT22;11858;51.056;3.712;2023-11-21T11:57:47;14.10;99.90
23371;DHT22;11858;51.056;3.712;2023-11-21T12:00:33;14.50;99.90
23371;DHT22;11858;51.056;3.712;2023-11-21T12:03:03;15.90;99.90
23371;DHT22;11858;51.056;3.712;2023-11-21T12:05:31;16.90;99.90
23371;DHT22;11858;51.056;3.712;2023-11-21T12:08:03;16.80;99.90
23371;DHT22;11858;51.056;3.712;2023-11-21T12:10:36;16.30;99.90
23371;DHT22;11858;51.056;3.712;2023-11-21T12:13:03;15.90;99.90
23371;DHT22;11858;51.056;3.712;2023-11-21T12:15:33;15.50;99.90
23371;DHT22;11858;51.056;3.712;2023-11-21T12:17:59;15.30;99.90
23371;DHT22;11858;51.056;3.712;2023-11-21T12:20:26;14.80;99.90
23371;DHT22;11858;51.056;3.712;2023-11-21T12:25:21;14.10;99.90
23371;DHT22;11858;51.056;3.712;2023-11-21T12:27:51;13.90;99.90
23371;DHT22;11858;51.056;3.712;2023-11-21T12:30:19;13.70;99.90
23371;DHT22;11858;51.056;3.712;2023-11-21T12:32:51;13.60;99.90
23371;DHT22;11858;51.056;3.712;2023-11-21T12:35:18;13.60;99.90
23371;DHT22;11858;51.056;3.712;2023-11-21T12:37:45;13.50;99.90
23371;DHT22;11858;51.056;3.712;2023-11-21T12:40:13;13.50;99.90
23371;DHT22;11858;51.056;3.712;2023-11-21T12:42:45;13.40;99.90
23371;DHT22;11858;51.056;3.712;2023-11-21T12:47:48;13.30;99.90
23371;DHT22;11858;51.056;3.712;2023-11-21T12:50:30;13.20;99.90
23371;DHT22;11858;51.056;3.712;2023-11-21T12:53:00;13.10;99.90
23371;DHT22;11858;51.056;3.712;2023-11-21T12:55:32;13.10;99.90
23371;DHT22;11858;51.056;3.712;2023-11-21T12:58:01;13.00;99.90
23371;DHT22;11858;51.056;3.712;2023-11-21T13:00:39;13.00;99.90
23371;DHT22;11858;51.056;3.712;2023-11-21T13:03:06;13.00;99.90
23371;DHT22;11858;51.056;3.712;2023-11-21T13:05:41;13.10;99.90
23371;DHT22;11858;51.056;3.712;2023-11-21T13:08:10;13.10;99.90
23371;DHT22;11858;51.056;3.712;2023-11-21T13:10:39;13.20;99.90
23371;DHT22;11858;51.056;3.712;2023-11-21T13:13:06;13.20;99.90
23371;DHT22;11858;51.056;3.712;2023-11-21T13:15:36;13.10;99.90
23371;DHT22;11858;51.056;3.712;2023-11-21T13:18:04;13.20;99.90
23371;DHT22;11858;51.056;3.712;2023-11-21T13:20:29;13.30;99.90
23371;DHT22;11858;51.056;3.712;2023-11-21T13:22:56;13.40;99.90
23371;DHT22;11858;51.056;3.712;2023-11-21T13:25:29;13.50;99.90
23371;DHT22;11858;51.056;3.712;2023-11-21T13:27:58;13.70;99.90
23371;DHT22;11858;51.056;3.712;2023-11-21T13:30:27;13.80;99.90
23371;DHT22;11858;51.056;3.712;2023-11-21T13:32:59;14.20;99.90
23371;DHT22;11858;51.056;3.712;2023-11-21T13:35:35;14.50;99.90
23371;DHT22;11858;51.056;3.712;2023-11-21T13:38:21;14.70;99.90
23371;DHT22;11858;51.056;3.712;2023-11-21T13:40:53;14.70;99.90
23371;DHT22;11858;51.056;3.712;2023-11-21T13:43:21;14.70;99.90
23371;DHT22;11858;51.056;3.712;2023-11-21T13:45:49;14.50;99.90
23371;DHT22;11858;51.056;3.712;2023-11-21T13:48:26;14.40;99.90
23371;DHT22;11858;51.056;3.712;2023-11-21T13:51:06;14.10;99.90
23371;DHT22;11858;51.056;3.712;2023-11-21T13:53:46;13.80;99.90
23371;DHT22;11858;51.056;3.712;2023-11-21T13:56:15;13.90;99.90
23371;DHT22;11858;51.056;3.712;2023-11-21T13:58:50;13.90;99.90
23371;DHT22;11858;51.056;3.712;2023-11-21T14:01:24;13.80;99.90
23371;DHT22;11858;51.056;3.712;2023-11-21T14:03:58;13.80;99.90
23371;DHT22;11858;51.056;3.712;2023-11-21T14:06:48;13.70;99.90
23371;DHT22;11858;51.056;3.712;2023-11-21T14:09:23;13.60;99.90
23371;DHT22;11858;51.056;3.712;2023-11-21T14:11:58;13.60;99.90
23371;DHT22;11858;51.056;3.712;2023-11-21T14:14:26;13.50;99.90
23371;DHT22;11858;51.056;3.712;2023-11-21T14:16:53;13.60;99.90
23371;DHT22;11858;51.056;3.712;2023-11-21T14:19:21;13.60;99.90
23371;DHT22;11858;51.056;3.712;2023-11-21T14:21:47;13.60;99.90
23371;DHT22;11858;51.056;3.712;2023-11-21T14:24:16;13.60;99.90
23371;DHT22;11858;51.056;3.712;2023-11-21T14:26:44;13.30;99.90
23371;DHT22;11858;51.056;3.712;2023-11-21T14:29:14;13.30;99.90
23371;DHT22;11858;51.056;3.712;2023-11-21T14:31:42;13.30;99.90
23371;DHT22;11858;51.056;3.712;2023-11-21T14:34:08;13.30;99.90
23371;DHT22;11858;51.056;3.712;2023-11-21T14:36:35;13.30;99.90
23371;DHT22;11858;51.056;3.712;2023-11-21T14:39:03;13.30;99.90
23371;DHT22;11858;51.056;3.712;2023-11-21T14:41:32;13.20;99.90
23371;DHT22;11858;51.056;3.712;2023-11-21T14:44:00;13.10;99.90
23371;DHT22;11858;51.056;3.712;2023-11-21T14:46:28;13.00;99.90
23371;DHT22;11858;51.056;3.712;2023-11-21T14:48:53;12.90;99.90
23371;DHT22;11858;51.056;3.712;2023-11-21T14:51:27;12.90;99.90
23371;DHT22;11858;51.056;3.712;2023-11-21T14:53:59;12.90;99.90
23371;DHT22;11858;51.056;3.712;2023-11-21T14:56:35;12.80;99.90
23371;DHT22;11858;51.056;3.712;2023-11-21T14:59:03;12.70;99.90
23371;DHT22;11858;51.056;3.712;2023-11-21T15:01:38;12.70;99.90
23371;DHT22;11858;51.056;3.712;2023-11-21T15:04:21;12.60;99.90
23371;DHT22;11858;51.056;3.712;2023-11-21T15:07:05;12.70;99.90
23371;DHT22;11858;51.056;3.712;2023-11-21T15:09:30;12.70;99.90
23371;DHT22;11858;51.056;3.712;2023-11-21T15:12:02;12.60;99.90
23371;DHT22;11858;51.056;3.712;2023-11-21T15:14:39;12.70;99.90
23371;DHT22;11858;51.056;3.712;2023-11-21T15:17:05;12.70;99.90
23371;DHT22;11858;51.056;3.712;2023-11-21T15:19:31;12.90;99.90
23371;DHT22;11858;51.056;3.712;2023-11-21T15:21:57;12.70;99.90
23371;DHT22;11858;51.056;3.712;2023-11-21T15:24:24;12.60;99.90
23371;DHT22;11858;51.056;3.712;2023-11-21T15:26:50;12.50;99.90
23371;DHT22;11858;51.056;3.712;2023-11-21T15:29:16;12.40;99.90
23371;DHT22;11858;51.056;3.712;2023-11-21T15:31:42;12.50;99.90
23371;DHT22;11858;51.056;3.712;2023-11-21T15:34:16;12.40;99.90
23371;DHT22;11858;51.056;3.712;2023-11-21T15:36:42;12.40;99.90
23371;DHT22;11858;51.056;3.712;2023-11-21T15:39:09;12.40;99.90
23371;DHT22;11858;51.056;3.712;2023-11-21T15:41:37;12.40;99.90
23371;DHT22;11858;51.056;3.712;2023-11-21T15:44:05;12.40;99.90
23371;DHT22;11858;51.056;3.712;2023-11-21T15:46:33;12.30;99.90
23371;DHT22;11858;51.056;3.712;2023-11-21T15:49:00;12.40;99.90
23371;DHT22;11858;51.056;3.712;2023-11-21T15:51:25;12.50;99.90
23371;DHT22;11858;51.056;3.712;2023-11-21T15:53:51;12.40;99.90
23371;DHT22;11858;51.056;3.712;2023-11-21T15:56:17;12.40;99.90
23371;DHT22;11858;51.056;3.712;2023-11-21T15:58:43;12.30;99.90
23371;DHT22;11858;51.056;3.712;2023-11-21T16:01:09;12.30;99.90
23371;DHT22;11858;51.056;3.712;2023-11-21T16:03:37;12.10;99.90